createdAt,value
2024-01-18T00:01:23.402Z,8.20
2024-01-18T00:04:25.365Z,8.23
2024-01-18T00:07:27.077Z,8.48
2024-01-18T00:10:29.239Z,8.44
2024-01-18T00:13:30.673Z,8.78
2024-01-18T00:16:34.229Z,8.36
2024-01-18T00:19:35.942Z,8.22
2024-01-18T00:22:37.679Z,8.11
2024-01-18T00:25:39.192Z,7.97
2024-01-18T00:28:40.720Z,7.92
2024-01-18T00:31:42.303Z,7.84
2024-01-18T00:34:43.792Z,8.13
2024-01-18T00:37:45.814Z,8.08
2024-01-18T00:40:47.308Z,8.26
2024-01-18T00:43:49.266Z,8.42
2024-01-18T00:46:50.740Z,8.12
2024-01-18T00:49:52.200Z,8.46
2024-01-18T00:52:53.677Z,8.36
2024-01-18T00:55:55.314Z,8.11
2024-01-18T00:58:56.809Z,8.17
2024-01-18T01:01:58.295Z,7.96
2024-01-18T01:04:59.739Z,7.89
2024-01-18T01:08:01.200Z,7.96
2024-01-18T01:11:05.905Z,7.95
2024-01-18T01:14:07.372Z,7.75
2024-01-18T01:17:08.816Z,8.12
2024-01-18T01:20:13.672Z,8.20
2024-01-18T01:23:15.216Z,8.28
2024-01-18T01:26:17.024Z,8.19
2024-01-18T01:29:18.488Z,8.48
2024-01-18T01:32:19.919Z,8.56
2024-01-18T01:35:21.402Z,8.62
2024-01-18T01:38:22.834Z,8.23
2024-01-18T01:41:24.309Z,8.20
2024-01-18T01:44:25.785Z,8.21
2024-01-18T01:47:27.190Z,8.32
2024-01-18T01:50:28.653Z,8.45
2024-01-18T01:53:30.156Z,8.34
2024-01-18T01:56:32.228Z,8.19
2024-01-18T01:59:33.695Z,8.13
2024-01-18T02:02:35.284Z,8.05
2024-01-18T02:05:36.841Z,7.80
2024-01-18T02:08:38.341Z,7.64
2024-01-18T02:11:39.789Z,7.42
2024-01-18T02:14:41.459Z,7.31
2024-01-18T02:17:42.924Z,7.35
2024-01-18T02:20:44.739Z,7.30
2024-01-18T02:23:49.786Z,7.19
2024-01-18T02:26:51.237Z,7.18
2024-01-18T02:29:52.635Z,7.18
2024-01-18T02:32:54.224Z,7.07
2024-01-18T02:35:55.749Z,7.18
2024-01-18T02:38:57.317Z,7.35
2024-01-18T02:41:58.887Z,7.70
2024-01-18T02:45:00.497Z,7.76
2024-01-18T02:48:02.083Z,7.71
2024-01-18T02:51:04.730Z,7.91
2024-01-18T02:54:06.249Z,8.10
2024-01-18T02:57:07.777Z,8.32
2024-01-18T03:00:09.472Z,8.17
2024-01-18T03:03:10.946Z,8.36
2024-01-18T03:06:12.584Z,8.27
2024-01-18T03:09:15.345Z,8.18
2024-01-18T03:12:16.880Z,8.00
2024-01-18T03:15:18.401Z,7.84
2024-01-18T03:18:19.936Z,7.74
2024-01-18T03:21:21.702Z,7.60
2024-01-18T03:24:23.214Z,7.63
2024-01-18T03:27:24.761Z,7.50
2024-01-18T03:30:26.276Z,7.23
2024-01-18T03:33:27.899Z,7.20
2024-01-18T03:36:29.815Z,7.03
2024-01-18T03:39:35.232Z,7.17
2024-01-18T03:42:39.485Z,7.20
2024-01-18T03:45:41.122Z,6.98
2024-01-18T03:48:42.780Z,6.99
2024-01-18T03:51:44.311Z,7.20
2024-01-18T03:54:48.138Z,7.10
2024-01-18T03:57:49.643Z,7.07
2024-01-18T04:00:51.358Z,7.14
2024-01-18T04:03:52.930Z,7.27
2024-01-18T04:06:54.601Z,7.67
2024-01-18T04:09:56.138Z,7.62
2024-01-18T04:12:58.077Z,7.59
2024-01-18T04:15:59.543Z,7.50
2024-01-18T04:19:01.187Z,7.74
2024-01-18T04:22:02.734Z,7.94
2024-01-18T04:25:04.895Z,7.66
2024-01-18T04:28:06.557Z,7.51
2024-01-18T04:31:08.134Z,7.42
2024-01-18T04:34:09.632Z,7.37
2024-01-18T04:37:12.425Z,7.39
2024-01-18T04:40:14.034Z,7.36
2024-01-18T04:43:15.512Z,7.20
2024-01-18T04:46:17.037Z,7.33
2024-01-18T04:49:18.510Z,7.28
2024-01-18T04:52:21.997Z,6.96
2024-01-18T04:55:23.483Z,7.10
2024-01-18T04:58:24.956Z,6.95
2024-01-18T05:01:26.561Z,6.89
2024-01-18T05:04:28.179Z,6.92
2024-01-18T05:07:29.950Z,6.73
2024-01-18T05:10:31.495Z,6.73
2024-01-18T05:13:33.565Z,6.64
2024-01-18T05:16:40.844Z,6.42
2024-01-18T05:19:42.467Z,6.74
2024-01-18T05:22:44.127Z,7.05
2024-01-18T05:25:45.723Z,6.91
2024-01-18T05:28:47.844Z,6.81
2024-01-18T05:31:49.279Z,7.03
2024-01-18T05:34:50.801Z,7.03
2024-01-18T05:37:52.322Z,7.02
2024-01-18T05:40:53.766Z,6.95
2024-01-18T05:43:56.318Z,6.90
2024-01-18T05:46:57.885Z,6.80
2024-01-18T05:49:59.382Z,6.75
2024-01-18T05:53:00.928Z,6.91
2024-01-18T05:56:02.498Z,6.88
2024-01-18T05:59:03.983Z,6.90
2024-01-18T06:02:05.484Z,6.88
2024-01-18T06:05:09.704Z,7.03
2024-01-18T06:08:12.680Z,7.03
2024-01-18T06:11:15.606Z,7.03
2024-01-18T06:14:17.067Z,6.97
2024-01-18T06:17:18.567Z,7.03
2024-01-18T06:20:20.956Z,6.96
2024-01-18T06:23:22.432Z,7.08
2024-01-18T06:26:24.008Z,7.07
2024-01-18T06:29:31.345Z,6.95
2024-01-18T06:32:32.850Z,6.95
2024-01-18T06:35:34.624Z,7.00
2024-01-18T06:38:36.324Z,7.09
2024-01-18T06:41:40.203Z,6.91
2024-01-18T06:44:44.652Z,6.93
2024-01-18T06:47:46.323Z,6.95
2024-01-18T06:50:47.855Z,7.01
2024-01-18T06:53:49.305Z,6.98
2024-01-18T06:56:50.856Z,6.97
2024-01-18T06:59:56.081Z,6.77
2024-01-18T07:02:57.859Z,6.71
2024-01-18T07:05:59.303Z,6.67
2024-01-18T07:09:00.873Z,6.66
2024-01-18T07:12:02.427Z,6.55
2024-01-18T07:15:04.938Z,6.64
2024-01-18T07:18:06.475Z,6.62
2024-01-18T07:21:08.147Z,6.47
2024-01-18T07:24:10.842Z,6.45
2024-01-18T07:27:13.054Z,6.36
2024-01-18T07:30:15.633Z,6.43
2024-01-18T07:33:18.003Z,6.62
2024-01-18T07:36:19.686Z,6.89
2024-01-18T07:39:21.442Z,7.18
2024-01-18T07:42:22.976Z,7.13
2024-01-18T07:45:24.515Z,6.98
2024-01-18T07:48:26.786Z,6.87
2024-01-18T07:51:29.175Z,7.03
2024-01-18T07:54:30.733Z,6.92
2024-01-18T07:57:32.436Z,6.85
2024-01-18T08:00:34.190Z,6.43
2024-01-18T08:03:35.894Z,6.37
2024-01-18T08:06:37.616Z,6.49
2024-01-18T08:09:39.638Z,5.51
2024-01-18T08:12:43.695Z,5.45
2024-01-18T08:15:45.284Z,5.50
2024-01-18T08:18:48.051Z,5.22
2024-01-18T08:21:49.753Z,4.83
2024-01-18T08:24:51.559Z,4.75
2024-01-18T08:27:55.416Z,3.99
2024-01-18T08:30:58.903Z,4.03
2024-01-18T08:34:00.534Z,3.82
2024-01-18T08:37:02.442Z,3.79
2024-01-18T08:40:04.219Z,3.42
2024-01-18T08:43:05.656Z,3.37
2024-01-18T08:46:08.314Z,3.21
2024-01-18T08:49:09.844Z,2.94
2024-01-18T08:52:12.007Z,2.94
2024-01-18T08:55:13.686Z,2.79
2024-01-18T08:58:15.118Z,2.54
2024-01-18T09:01:19.575Z,2.02
2024-01-18T09:04:21.193Z,1.90
2024-01-18T09:07:22.732Z,1.83
2024-01-18T09:10:24.268Z,1.75
2024-01-18T09:13:25.797Z,1.80
2024-01-18T09:16:31.738Z,1.20
2024-01-18T09:19:33.287Z,0.99
2024-01-18T09:22:34.811Z,0.83
2024-01-18T09:25:36.312Z,0.65
2024-01-18T09:28:37.745Z,0.57
2024-01-18T09:31:42.805Z,0.27
2024-01-18T09:34:45.038Z,0.19
2024-01-18T09:37:46.496Z,-0.07
2024-01-18T09:40:48.047Z,-0.11
2024-01-18T09:43:49.526Z,-0.32
2024-01-18T09:46:53.484Z,-0.54
2024-01-18T09:49:55.044Z,-0.68
2024-01-18T09:52:56.524Z,-0.80
2024-01-18T09:56:01.681Z,-0.88
2024-01-18T09:59:05.196Z,-0.91
2024-01-18T10:02:06.777Z,-0.99
2024-01-18T10:05:08.472Z,-0.98
2024-01-18T10:08:10.069Z,-0.96
2024-01-18T10:11:11.597Z,-1.04
2024-01-18T10:14:13.183Z,-1.10
2024-01-18T10:17:22.777Z,-0.96
2024-01-18T10:20:24.570Z,-0.93
2024-01-18T10:23:26.194Z,-0.88
2024-01-18T10:26:31.111Z,-0.87
2024-01-18T10:29:38.692Z,-0.88
2024-01-18T10:32:40.819Z,-0.89
2024-01-18T10:35:42.356Z,-0.83
2024-01-18T10:38:44.113Z,-0.90
2024-01-18T10:41:45.784Z,-1.03
2024-01-18T10:44:48.161Z,-0.95
2024-01-18T10:47:49.641Z,-0.91
2024-01-18T10:50:52.647Z,-0.96
2024-01-18T10:53:55.764Z,-1.05
2024-01-18T10:57:03.201Z,-1.01
2024-01-18T11:00:07.910Z,-0.97
2024-01-18T11:03:09.653Z,-1.06
2024-01-18T11:06:13.491Z,-1.05
2024-01-18T11:09:15.069Z,-1.06
2024-01-18T11:12:16.796Z,-1.01
2024-01-18T11:15:18.392Z,-1.18
2024-01-18T11:18:20.080Z,-1.12
2024-01-18T11:21:28.651Z,-1.22
2024-01-18T11:24:30.123Z,-1.12
2024-01-18T11:27:35.496Z,-1.29
2024-01-18T11:30:37.815Z,-1.38
2024-01-18T11:33:39.413Z,-1.36
2024-01-18T11:36:45.020Z,-1.39
2024-01-18T11:39:49.887Z,-1.48
2024-01-18T11:42:51.588Z,-1.52
2024-01-18T11:45:55.605Z,-1.58
2024-01-18T11:48:57.235Z,-1.67
2024-01-18T11:51:59.488Z,-1.63
2024-01-18T11:55:01.168Z,-1.73
2024-01-18T11:58:02.802Z,-1.77
2024-01-18T12:01:05.963Z,-1.75
2024-01-18T12:04:08.620Z,-1.83
2024-01-18T12:07:11.423Z,-1.83
2024-01-18T12:10:12.967Z,-1.95
2024-01-18T12:13:14.439Z,-1.83
2024-01-18T12:16:16.362Z,-1.99
2024-01-18T12:19:30.091Z,-2.06
2024-01-18T12:22:31.889Z,-2.02
2024-01-18T12:25:33.613Z,-2.15
2024-01-18T12:28:35.065Z,-2.19
2024-01-18T12:31:36.994Z,-2.13
2024-01-18T12:34:38.912Z,-2.20
2024-01-18T12:37:40.650Z,-2.20
2024-01-18T12:40:42.104Z,-2.27
2024-01-18T12:43:43.542Z,-2.24
2024-01-18T12:46:45.700Z,-2.18
2024-01-18T12:49:47.423Z,-2.26
2024-01-18T12:52:52.080Z,-2.28
2024-01-18T12:55:53.500Z,-2.18
2024-01-18T12:58:56.499Z,-2.24
2024-01-18T13:01:58.038Z,-2.22
2024-01-18T13:05:00.168Z,-2.15
2024-01-18T13:08:01.833Z,-2.18
2024-01-18T13:11:04.596Z,-2.10
2024-01-18T13:14:10.382Z,-2.13
2024-01-18T13:17:15.930Z,-2.07
2024-01-18T13:20:17.415Z,-2.18
2024-01-18T13:23:18.960Z,-2.03
2024-01-18T13:26:20.435Z,-2.05
2024-01-18T13:29:21.937Z,-2.12
2024-01-18T13:32:23.663Z,-2.11
2024-01-18T13:35:25.400Z,-2.05
2024-01-18T13:38:26.846Z,-2.00
2024-01-18T13:41:28.321Z,-1.95
2024-01-18T13:44:29.746Z,-1.94
2024-01-18T13:47:31.242Z,-1.93
2024-01-18T13:50:32.764Z,-1.84
2024-01-18T13:53:34.380Z,-1.90
2024-01-18T13:56:36.018Z,-1.81
2024-01-18T13:59:37.562Z,-1.77
2024-01-18T14:02:39.042Z,-1.84
2024-01-18T14:05:41.516Z,-1.89
2024-01-18T14:08:44.687Z,-1.84
2024-01-18T14:11:46.164Z,-1.81
2024-01-18T14:14:47.628Z,-1.78
2024-01-18T14:17:49.408Z,-1.81
2024-01-18T14:20:50.949Z,-1.84
2024-01-18T14:23:52.383Z,-1.82
2024-01-18T14:26:53.972Z,-1.80
2024-01-18T14:29:55.921Z,-1.80
2024-01-18T14:32:57.524Z,-1.88
2024-01-18T14:35:59.100Z,-1.85
2024-01-18T14:39:00.717Z,-1.89
2024-01-18T14:42:02.176Z,-1.89
2024-01-18T14:45:05.262Z,-1.87
2024-01-18T14:48:14.382Z,-1.96
2024-01-18T14:51:15.957Z,-1.96
2024-01-18T14:54:17.398Z,-1.88
2024-01-18T14:57:19.245Z,-1.87
2024-01-18T15:00:21.065Z,-1.85
2024-01-18T15:03:22.696Z,-1.79
2024-01-18T15:06:24.198Z,-1.74
2024-01-18T15:09:25.791Z,-1.79
2024-01-18T15:12:27.362Z,-1.74
2024-01-18T15:15:29.165Z,-1.85
2024-01-18T15:18:30.833Z,-1.81
2024-01-18T15:21:35.019Z,-1.81
2024-01-18T15:24:36.631Z,-1.81
2024-01-18T15:27:38.656Z,-1.88
2024-01-18T15:30:40.185Z,-1.80
2024-01-18T15:33:41.948Z,-1.81
2024-01-18T15:36:43.568Z,-1.73
2024-01-18T15:39:45.052Z,-1.76
2024-01-18T15:42:46.508Z,-1.77
2024-01-18T15:45:47.973Z,-1.70
2024-01-18T15:48:56.533Z,-1.68
2024-01-18T15:51:58.231Z,-1.68
2024-01-18T15:55:00.378Z,-1.69
2024-01-18T15:58:02.053Z,-1.68
2024-01-18T16:01:03.707Z,-1.69
2024-01-18T16:04:05.356Z,-1.71
2024-01-18T16:07:06.929Z,-1.70
2024-01-18T16:10:09.158Z,-1.72
2024-01-18T16:13:10.662Z,-1.73
2024-01-18T16:16:12.220Z,-1.75
2024-01-18T16:19:19.579Z,-1.75
2024-01-18T16:22:21.461Z,-1.73
2024-01-18T16:25:22.922Z,-1.72
2024-01-18T16:28:24.383Z,-1.70
2024-01-18T16:31:26.088Z,-1.67
2024-01-18T16:34:28.928Z,-1.67
2024-01-18T16:37:30.386Z,-1.62
2024-01-18T16:40:32.567Z,-1.59
2024-01-18T16:43:34.251Z,-1.58
2024-01-18T16:46:36.261Z,-1.61
2024-01-18T16:49:38.028Z,-1.59
2024-01-18T16:52:39.672Z,-1.60
2024-01-18T16:55:41.316Z,-1.57
2024-01-18T16:58:43.037Z,-1.54
2024-01-18T17:01:44.578Z,-1.46
2024-01-18T17:04:46.096Z,-1.46
2024-01-18T17:07:47.567Z,-1.48
2024-01-18T17:10:50.787Z,-1.46
2024-01-18T17:13:52.259Z,-1.51
2024-01-18T17:16:53.722Z,-1.52
2024-01-18T17:19:55.276Z,-1.51
2024-01-18T17:22:57.252Z,-1.55
2024-01-18T17:25:59.176Z,-1.47
2024-01-18T17:29:00.637Z,-1.56
2024-01-18T17:32:02.065Z,-1.58
2024-01-18T17:35:03.716Z,-1.57
2024-01-18T17:38:05.275Z,-1.53
2024-01-18T17:41:06.826Z,-1.57
2024-01-18T17:44:08.549Z,-1.73
2024-01-18T17:47:13.650Z,-1.64
2024-01-18T17:50:32.206Z,-1.69
2024-01-18T17:53:34.316Z,-1.63
2024-01-18T17:56:39.107Z,-1.62
2024-01-18T17:59:40.824Z,-1.60
2024-01-18T18:02:45.391Z,-1.63
2024-01-18T18:05:48.338Z,-1.62
2024-01-18T18:08:49.920Z,-1.62
2024-01-18T18:11:51.679Z,-1.60
2024-01-18T18:14:53.187Z,-1.60
2024-01-18T18:17:54.739Z,-1.62
2024-01-18T18:20:56.621Z,-1.67
2024-01-18T18:23:58.045Z,-1.61
2024-01-18T18:26:59.545Z,-1.60
2024-01-18T18:30:01.143Z,-1.59
2024-01-18T18:33:03.617Z,-1.57
2024-01-18T18:36:05.354Z,-1.62
2024-01-18T18:39:06.891Z,-1.58
2024-01-18T18:42:08.764Z,-1.58
2024-01-18T18:45:10.339Z,-1.53
2024-01-18T18:48:11.907Z,-1.54
2024-01-18T18:51:13.441Z,-1.54
2024-01-18T18:54:14.963Z,-1.55
2024-01-18T18:57:16.625Z,-1.54
2024-01-18T19:00:18.136Z,-1.61
2024-01-18T19:03:19.683Z,-1.61
2024-01-18T19:06:21.146Z,-1.62
2024-01-18T19:09:22.614Z,-1.54
2024-01-18T19:12:24.197Z,-1.56
2024-01-18T19:15:25.638Z,-1.56
2024-01-18T19:18:27.258Z,-1.57
2024-01-18T19:21:28.848Z,-1.67
2024-01-18T19:24:30.334Z,-1.61
2024-01-18T19:27:31.795Z,-1.59
2024-01-18T19:30:33.251Z,-1.64
2024-01-18T19:33:34.723Z,-1.60
2024-01-18T19:36:36.270Z,-1.71
2024-01-18T19:39:40.822Z,-1.70
2024-01-18T19:42:45.248Z,-1.84
2024-01-18T19:45:46.769Z,-1.90
2024-01-18T19:48:48.256Z,-1.97
2024-01-18T19:51:50.537Z,-1.87
2024-01-18T19:54:51.971Z,-1.85
2024-01-18T19:57:54.182Z,-1.93
2024-01-18T20:00:55.968Z,-1.93
2024-01-18T20:03:57.759Z,-2.04
2024-01-18T20:06:59.305Z,-2.00
2024-01-18T20:10:01.421Z,-2.07
2024-01-18T20:13:02.869Z,-2.16
2024-01-18T20:16:04.529Z,-2.12
2024-01-18T20:19:06.030Z,-2.08
2024-01-18T20:22:07.647Z,-2.17
2024-01-18T20:25:09.471Z,-2.17
2024-01-18T20:28:10.944Z,-2.17
2024-01-18T20:31:15.259Z,-2.20
2024-01-18T20:34:17.424Z,-2.19
2024-01-18T20:37:19.011Z,-2.17
2024-01-18T20:40:20.502Z,-2.18
2024-01-18T20:43:22.066Z,-2.26
2024-01-18T20:46:23.592Z,-2.28
2024-01-18T20:49:25.228Z,-2.33
2024-01-18T20:52:26.781Z,-2.32
2024-01-18T20:55:28.366Z,-2.34
2024-01-18T20:58:29.803Z,-2.34
2024-01-18T21:01:31.330Z,-2.35
2024-01-18T21:04:34.125Z,-2.35
2024-01-18T21:07:36.934Z,-2.38
2024-01-18T21:10:38.433Z,-2.47
2024-01-18T21:13:39.863Z,-2.51
2024-01-18T21:16:41.383Z,-2.58
2024-01-18T21:19:42.821Z,-2.59
2024-01-18T21:22:44.313Z,-2.65
2024-01-18T21:25:45.815Z,-2.69
2024-01-18T21:28:47.291Z,-2.68
2024-01-18T21:31:48.732Z,-2.71
2024-01-18T21:34:50.965Z,-2.69
2024-01-18T21:37:55.438Z,-2.69
2024-01-18T21:40:56.890Z,-2.69
2024-01-18T21:43:58.533Z,-2.67
2024-01-18T21:47:00.005Z,-2.64
2024-01-18T21:50:01.734Z,-2.68
2024-01-18T21:53:04.881Z,-2.68
2024-01-18T21:56:08.125Z,-2.67
2024-01-18T21:59:10.432Z,-2.74
2024-01-18T22:02:12.440Z,-2.70
2024-01-18T22:05:14.174Z,-2.67
2024-01-18T22:08:15.703Z,-2.68
2024-01-18T22:11:17.175Z,-2.69
2024-01-18T22:14:18.744Z,-2.71
2024-01-18T22:17:21.026Z,-2.91
2024-01-18T22:20:26.231Z,-2.77
2024-01-18T22:23:27.743Z,-2.73
2024-01-18T22:26:29.226Z,-2.80
2024-01-18T22:29:30.766Z,-2.79
2024-01-18T22:32:32.670Z,-2.74
2024-01-18T22:35:34.286Z,-2.73
2024-01-18T22:38:35.897Z,-2.72
2024-01-18T22:41:37.344Z,-2.94
2024-01-18T22:44:38.860Z,-2.98
2024-01-18T22:47:40.705Z,-2.91
2024-01-18T22:50:42.281Z,-2.88
2024-01-18T22:53:44.138Z,-2.89
2024-01-18T22:56:46.446Z,-2.87
2024-01-18T22:59:48.014Z,-2.87
2024-01-18T23:02:49.481Z,-2.98
2024-01-18T23:05:50.982Z,-2.96
2024-01-18T23:08:52.514Z,-2.94
2024-01-18T23:11:54.207Z,-3.14
2024-01-18T23:14:55.667Z,-3.18
2024-01-18T23:17:57.243Z,-3.08
2024-01-18T23:20:58.705Z,-3.16
2024-01-18T23:24:00.149Z,-3.19
2024-01-18T23:27:01.684Z,-3.24
2024-01-18T23:30:03.185Z,-3.15
2024-01-18T23:33:04.853Z,-3.11
2024-01-18T23:36:06.435Z,-3.03
2024-01-18T23:39:08.718Z,-3.02
2024-01-18T23:42:10.162Z,-3.07
2024-01-18T23:45:11.580Z,-2.98
2024-01-18T23:48:13.109Z,-3.12
2024-01-18T23:51:14.670Z,-3.02
2024-01-18T23:54:16.088Z,-2.89
2024-01-18T23:57:17.537Z,-2.92
